Time;durP1;ratioP1;P1;durP2;ratioP2;P2;SDS_P1;SDS_P2;PMS_P1;PMS_P2;Temp;Humidity;BMP_temperature;BMP_pressure;BME280_temperature;BME280_humidity;BME280_pressure;Samples;Min_cycle;Max_cycle;Signal;HPM_P1;HPM_P2
2021/05/16 00:01:21;;;;;;;1.95;0.43;;;;;;;;;;5015349;28;20044;-69
2021/05/16 00:03:49;;;;;;;2.10;0.35;;;;;;;;;;4995563;28;20033;-68
2021/05/16 00:06:16;;;;;;;2.70;0.55;;;;;;;;;;5015079;28;20026;-68
2021/05/16 00:08:44;;;;;;;1.42;0.32;;;;;;;;;;5011801;28;20030;-68
2021/05/16 00:11:11;;;;;;;5.20;0.63;;;;;;;;;;4997157;28;20038;-68
2021/05/16 00:13:38;;;;;;;3.47;0.68;;;;;;;;;;4995164;28;20113;-68
2021/05/16 00:16:06;;;;;;;1.73;0.38;;;;;;;;;;5014093;28;20045;-68
2021/05/16 00:18:33;;;;;;;1.50;0.30;;;;;;;;;;5011541;28;20026;-69
2021/05/16 00:21:00;;;;;;;1.67;0.40;;;;;;;;;;4997238;28;20037;-68
2021/05/16 00:23:27;;;;;;;3.40;0.40;;;;;;;;;;5013464;28;20041;-68
2021/05/16 00:25:54;;;;;;;4.55;0.40;;;;;;;;;;5014693;28;20471;-68
2021/05/16 00:28:21;;;;;;;1.77;0.40;;;;;;;;;;5012085;28;20025;-68
2021/05/16 00:30:49;;;;;;;4.45;0.47;;;;;;;;;;4996770;28;20475;-68
2021/05/16 00:33:16;;;;;;;1.40;0.25;;;;;;;;;;5013310;28;20109;-67
2021/05/16 00:35:43;;;;;;;2.88;0.60;;;;;;;;;;5014290;28;20026;-67
2021/05/16 00:38:10;;;;;;;1.15;0.40;;;;;;;;;;5012156;28;20054;-67
2021/05/16 00:40:37;;;;;;;1.80;0.30;;;;;;;;;;5011999;28;20014;-68
2021/05/16 00:43:06;;;;;;;2.92;0.47;;;;;;;;;;5011830;28;20022;-68
2021/05/16 00:45:34;;;;;;;2.97;0.50;;;;;;;;;;5011558;28;20531;-67
2021/05/16 00:48:06;;;;;;;2.83;0.55;;;;;;;;;;5009705;28;20486;-68
2021/05/16 00:50:40;;;;;;;4.22;0.63;;;;;;;;;;4996590;28;20474;-67
2021/05/16 00:53:10;;;;;;;3.30;0.45;;;;;;;;;;5011126;28;20029;-67
2021/05/16 00:55:37;;;;;;;3.38;0.45;;;;;;;;;;5011803;28;20034;-67
2021/05/16 00:58:05;;;;;;;2.47;0.38;;;;;;;;;;5012470;28;20030;-68
2021/05/16 01:00:39;;;;;;;2.00;0.30;;;;;;;;;;5013803;28;20590;-68
2021/05/16 01:03:06;;;;;;;3.42;0.35;;;;;;;;;;5012218;28;20112;-67
2021/05/16 01:05:33;;;;;;;3.20;0.40;;;;;;;;;;5013970;28;20018;-67
2021/05/16 01:08:00;;;;;;;1.98;0.30;;;;;;;;;;5010515;28;20030;-66
2021/05/16 01:10:28;;;;;;;3.55;0.60;;;;;;;;;;5005633;28;20026;-67
2021/05/16 01:12:55;;;;;;;0.73;0.30;;;;;;;;;;5015204;28;20073;-66
2021/05/16 01:15:24;;;;;;;4.30;0.43;;;;;;;;;;5013472;28;20053;-66
2021/05/16 01:17:51;;;;;;;3.20;0.73;;;;;;;;;;4993554;28;20109;-66
2021/05/16 01:20:24;;;;;;;1.90;0.35;;;;;;;;;;4995120;28;20030;-66
2021/05/16 01:22:58;;;;;;;3.22;0.50;;;;;;;;;;5012852;28;20029;-66
2021/05/16 01:25:26;;;;;;;1.02;0.30;;;;;;;;;;4995356;28;20528;-66
2021/05/16 01:27:53;;;;;;;0.98;0.38;;;;;;;;;;5016707;28;20025;-66
2021/05/16 01:30:21;;;;;;;3.20;0.73;;;;;;;;;;5012299;28;20030;-67
2021/05/16 01:32:49;;;;;;;3.65;0.50;;;;;;;;;;5003040;28;20022;-66
2021/05/16 01:35:16;;;;;;;1.90;0.50;;;;;;;;;;5005596;28;20030;-66
2021/05/16 01:37:43;;;;;;;1.73;0.30;;;;;;;;;;4993418;28;20085;-66
2021/05/16 01:40:11;;;;;;;2.97;0.40;;;;;;;;;;5011355;28;20112;-66
2021/05/16 01:42:44;;;;;;;2.42;0.40;;;;;;;;;;4994378;28;20117;-65
2021/05/16 01:45:13;;;;;;;2.83;0.47;;;;;;;;;;4990484;28;20065;-65
2021/05/16 01:47:41;;;;;;;2.88;0.52;;;;;;;;;;5008672;28;20064;-65
2021/05/16 01:50:10;;;;;;;2.35;0.60;;;;;;;;;;5008041;28;20036;-67
2021/05/16 01:52:39;;;;;;;1.55;0.30;;;;;;;;;;5005797;28;20026;-65
2021/05/16 01:55:07;;;;;;;2.80;0.50;;;;;;;;;;5008446;28;20032;-66
2021/05/16 01:57:34;;;;;;;3.15;1.40;;;;;;;;;;5010003;28;20038;-67
2021/05/16 02:00:01;;;;;;;2.90;1.30;;;;;;;;;;5006855;28;20336;-67
2021/05/16 02:02:29;;;;;;;4.40;1.20;;;;;;;;;;5008230;28;20536;-68
2021/05/16 02:04:56;;;;;;;2.20;0.40;;;;;;;;;;5003333;28;20042;-68
2021/05/16 02:07:23;;;;;;;3.25;0.30;;;;;;;;;;4997477;28;20017;-68
2021/05/16 02:09:51;;;;;;;4.25;1.15;;;;;;;;;;5009706;28;20042;-67
2021/05/16 02:12:19;;;;;;;3.33;0.40;;;;;;;;;;5012259;28;20022;-67
2021/05/16 02:14:47;;;;;;;2.30;0.50;;;;;;;;;;5009430;28;20542;-68
2021/05/16 02:17:14;;;;;;;2.35;0.30;;;;;;;;;;5012191;28;20065;-67
2021/05/16 02:19:42;;;;;;;2.05;0.30;;;;;;;;;;4993088;28;20034;-67
2021/05/16 02:22:10;;;;;;;2.85;0.30;;;;;;;;;;5012012;28;20492;-68
2021/05/16 02:24:37;;;;;;;0.75;0.28;;;;;;;;;;5009787;28;20029;-67
2021/05/16 02:27:04;;;;;;;1.85;0.55;;;;;;;;;;5011808;28;20025;-69
2021/05/16 02:29:32;;;;;;;2.78;0.43;;;;;;;;;;5002436;28;20015;-68
2021/05/16 02:31:59;;;;;;;2.83;0.38;;;;;;;;;;5012999;28;20026;-67
2021/05/16 02:34:26;;;;;;;1.70;0.30;;;;;;;;;;5005100;28;20030;-68
2021/05/16 02:36:53;;;;;;;3.13;0.35;;;;;;;;;;5012075;28;20390;-68
2021/05/16 02:39:21;;;;;;;2.47;0.30;;;;;;;;;;5011069;28;20026;-67
2021/05/16 02:41:48;;;;;;;1.58;0.57;;;;;;;;;;5008279;28;20076;-67
2021/05/16 02:44:18;;;;;;;2.05;0.60;;;;;;;;;;5008666;28;20037;-67
2021/05/16 02:46:45;;;;;;;1.90;0.40;;;;;;;;;;5006267;28;20056;-68
2021/05/16 02:49:12;;;;;;;1.80;0.68;;;;;;;;;;5010791;28;20030;-68
2021/05/16 02:51:40;;;;;;;1.25;0.45;;;;;;;;;;4992333;28;20029;-68
2021/05/16 02:54:07;;;;;;;3.28;0.85;;;;;;;;;;5015532;28;20109;-67
2021/05/16 02:56:34;;;;;;;1.77;0.40;;;;;;;;;;5011936;28;20033;-68
2021/05/16 02:59:02;;;;;;;3.63;0.40;;;;;;;;;;5009280;28;20029;-68
2021/05/16 03:01:29;;;;;;;2.75;0.50;;;;;;;;;;5010852;28;20482;-67
2021/05/16 03:03:56;;;;;;;2.63;0.52;;;;;;;;;;5015828;28;20036;-67
2021/05/16 03:06:23;;;;;;;1.58;0.30;;;;;;;;;;4995537;28;20034;-67
2021/05/16 03:08:50;;;;;;;1.30;0.20;;;;;;;;;;5016045;28;20034;-67
2021/05/16 03:11:17;;;;;;;2.85;0.60;;;;;;;;;;5013573;28;20351;-67
2021/05/16 03:13:45;;;;;;;2.58;0.60;;;;;;;;;;5020481;28;20064;-66
2021/05/16 03:16:12;;;;;;;2.25;0.30;;;;;;;;;;4996872;28;20050;-66
2021/05/16 03:18:39;;;;;;;1.38;0.30;;;;;;;;;;5009954;28;20029;-67
2021/05/16 03:21:06;;;;;;;2.45;0.45;;;;;;;;;;5032256;28;20026;-67
2021/05/16 03:23:33;;;;;;;1.92;0.60;;;;;;;;;;5008069;28;20034;-66
2021/05/16 03:26:01;;;;;;;3.30;0.65;;;;;;;;;;4995889;28;20471;-66
2021/05/16 03:28:29;;;;;;;1.83;0.45;;;;;;;;;;4999563;28;20022;-67
2021/05/16 03:30:56;;;;;;;2.70;0.50;;;;;;;;;;4994588;28;20455;-67
2021/05/16 03:33:24;;;;;;;1.70;0.43;;;;;;;;;;5012732;28;20041;-67
2021/05/16 03:35:51;;;;;;;1.30;0.30;;;;;;;;;;5015112;28;20478;-67
2021/05/16 03:38:24;;;;;;;3.03;1.15;;;;;;;;;;5013804;28;20057;-66
2021/05/16 03:40:51;;;;;;;3.70;0.90;;;;;;;;;;4997740;28;20026;-68
2021/05/16 03:43:20;;;;;;;1.48;0.40;;;;;;;;;;5013108;28;20025;-69
2021/05/16 03:45:47;;;;;;;2.58;0.60;;;;;;;;;;5015314;28;20080;-68
2021/05/16 03:48:15;;;;;;;2.80;0.32;;;;;;;;;;5014038;28;20022;-69
2021/05/16 03:50:42;;;;;;;2.40;0.20;;;;;;;;;;5015541;28;20024;-70
2021/05/16 03:53:09;;;;;;;3.05;0.43;;;;;;;;;;5011146;28;20060;-70
2021/05/16 03:55:36;;;;;;;1.10;0.40;;;;;;;;;;4995750;28;20022;-71
2021/05/16 03:58:04;;;;;;;1.92;0.43;;;;;;;;;;5005531;28;20045;-70
2021/05/16 04:00:31;;;;;;;1.08;0.30;;;;;;;;;;5014264;28;20371;-70
2021/05/16 04:02:58;;;;;;;2.35;0.40;;;;;;;;;;5013205;28;20033;-70
2021/05/16 04:05:25;;;;;;;2.63;0.50;;;;;;;;;;5014650;28;20038;-70
2021/05/16 04:07:52;;;;;;;8.55;4.38;;;;;;;;;;5013463;28;20132;-70
2021/05/16 04:10:19;;;;;;;2.05;0.80;;;;;;;;;;4996238;28;20057;-70
2021/05/16 04:12:46;;;;;;;3.40;1.00;;;;;;;;;;4999502;28;20113;-70
2021/05/16 04:15:14;;;;;;;4.43;1.02;;;;;;;;;;5011916;28;20053;-69
2021/05/16 04:17:41;;;;;;;2.17;0.73;;;;;;;;;;5013766;28;20068;-70
2021/05/16 04:20:08;;;;;;;3.78;1.10;;;;;;;;;;5014962;28;20025;-70
2021/05/16 04:22:35;;;;;;;1.90;0.30;;;;;;;;;;5015866;28;20021;-69
2021/05/16 04:25:03;;;;;;;2.90;0.73;;;;;;;;;;5012988;28;20037;-71
2021/05/16 04:27:30;;;;;;;1.17;0.40;;;;;;;;;;5014890;28;20374;-70
2021/05/16 04:29:57;;;;;;;1.73;0.57;;;;;;;;;;5011554;28;20026;-70
2021/05/16 04:32:25;;;;;;;2.20;0.30;;;;;;;;;;5014192;28;20494;-70
2021/05/16 04:34:52;;;;;;;1.13;0.30;;;;;;;;;;5011046;28;20030;-70
2021/05/16 04:37:19;;;;;;;1.50;0.40;;;;;;;;;;5013499;28;20867;-70
2021/05/16 04:39:46;;;;;;;1.35;0.50;;;;;;;;;;5012370;28;20080;-71
2021/05/16 04:42:13;;;;;;;4.05;0.40;;;;;;;;;;5014215;28;20106;-72
2021/05/16 04:44:40;;;;;;;2.15;0.30;;;;;;;;;;5012978;28;20034;-73
2021/05/16 04:47:08;;;;;;;2.00;0.28;;;;;;;;;;5014199;28;20045;-71
2021/05/16 04:49:36;;;;;;;2.40;0.40;;;;;;;;;;4990813;28;20076;-71
2021/05/16 04:52:06;;;;;;;2.13;0.60;;;;;;;;;;5001184;28;20642;-70
2021/05/16 04:54:33;;;;;;;2.17;0.30;;;;;;;;;;5012817;28;20065;-71
2021/05/16 04:57:03;;;;;;;0.90;0.63;;;;;;;;;;5013390;28;20102;-71
2021/05/16 04:59:30;;;;;;;2.20;0.35;;;;;;;;;;5009991;28;20109;-72
2021/05/16 05:01:57;;;;;;;0.95;0.20;;;;;;;;;;5016352;28;20491;-71
2021/05/16 05:04:24;;;;;;;1.25;0.20;;;;;;;;;;5010253;28;20426;-70
2021/05/16 05:06:51;;;;;;;0.52;0.20;;;;;;;;;;5012484;28;20053;-71
2021/05/16 05:09:18;;;;;;;2.22;0.20;;;;;;;;;;5011968;28;20422;-70
2021/05/16 05:11:47;;;;;;;0.90;0.30;;;;;;;;;;5012225;28;20697;-71
2021/05/16 05:14:14;;;;;;;1.13;0.20;;;;;;;;;;5008714;28;20121;-71
2021/05/16 05:16:41;;;;;;;1.15;0.30;;;;;;;;;;4994159;28;20112;-71
2021/05/16 05:19:08;;;;;;;2.08;0.40;;;;;;;;;;5007673;28;20033;-71
2021/05/16 05:21:35;;;;;;;0.68;0.10;;;;;;;;;;5012414;28;20026;-71
2021/05/16 05:24:02;;;;;;;1.42;0.20;;;;;;;;;;5004038;28;20026;-71
2021/05/16 05:26:30;;;;;;;1.42;0.50;;;;;;;;;;5009995;28;20084;-72
2021/05/16 05:28:57;;;;;;;0.73;0.20;;;;;;;;;;5010249;28;20022;-70
2021/05/16 05:31:24;;;;;;;1.70;0.40;;;;;;;;;;5011014;28;20037;-70
2021/05/16 05:33:51;;;;;;;0.70;0.38;;;;;;;;;;5000145;28;20022;-71
2021/05/16 05:36:18;;;;;;;1.08;0.40;;;;;;;;;;5012672;28;20018;-71
2021/05/16 05:38:45;;;;;;;1.15;0.20;;;;;;;;;;5011830;28;20360;-71
2021/05/16 05:41:13;;;;;;;3.45;0.30;;;;;;;;;;5010569;28;20033;-70
2021/05/16 05:43:41;;;;;;;0.95;0.20;;;;;;;;;;5004221;28;20049;-71
2021/05/16 05:46:08;;;;;;;0.52;0.20;;;;;;;;;;5003295;28;20049;-71
2021/05/16 05:48:35;;;;;;;0.88;0.40;;;;;;;;;;5006754;28;20040;-71
2021/05/16 05:51:03;;;;;;;1.77;0.40;;;;;;;;;;5010686;28;20034;-71
2021/05/16 05:53:30;;;;;;;0.73;0.40;;;;;;;;;;5000275;28;20025;-71
2021/05/16 05:55:57;;;;;;;2.67;0.47;;;;;;;;;;4991160;28;20030;-71
2021/05/16 05:58:24;;;;;;;2.85;0.55;;;;;;;;;;5010717;28;20538;-71
2021/05/16 06:00:51;;;;;;;1.40;0.45;;;;;;;;;;5010788;28;20028;-72
2021/05/16 06:03:18;;;;;;;1.05;0.38;;;;;;;;;;5010689;28;20033;-72
2021/05/16 06:05:46;;;;;;;0.35;0.17;;;;;;;;;;5012907;28;20026;-72
2021/05/16 06:08:13;;;;;;;0.80;0.30;;;;;;;;;;5010639;28;20097;-71
2021/05/16 06:10:40;;;;;;;1.88;0.40;;;;;;;;;;5011420;28;20109;-69
2021/05/16 06:13:07;;;;;;;2.88;0.50;;;;;;;;;;4991659;28;20037;-71
2021/05/16 06:15:34;;;;;;;1.88;0.40;;;;;;;;;;5001832;28;20054;-70
2021/05/16 06:18:02;;;;;;;1.85;0.30;;;;;;;;;;4989511;28;20022;-70
2021/05/16 06:20:29;;;;;;;1.10;0.30;;;;;;;;;;5032401;28;20477;-70
2021/05/16 06:22:59;;;;;;;2.92;0.38;;;;;;;;;;5028670;28;20081;-70
2021/05/16 06:25:26;;;;;;;2.92;0.60;;;;;;;;;;5020049;28;20077;-71
2021/05/16 06:27:56;;;;;;;1.83;0.40;;;;;;;;;;5012601;28;20091;-70
2021/05/16 06:30:23;;;;;;;1.80;0.55;;;;;;;;;;5012647;28;20018;-69
2021/05/16 06:32:50;;;;;;;3.00;0.68;;;;;;;;;;5017431;28;20089;-70
2021/05/16 06:35:18;;;;;;;1.75;0.57;;;;;;;;;;5011682;28;20036;-69
2021/05/16 06:37:46;;;;;;;3.50;0.50;;;;;;;;;;5000844;28;20023;-70
2021/05/16 06:40:14;;;;;;;2.10;0.50;;;;;;;;;;4998997;28;20033;-70
2021/05/16 06:42:42;;;;;;;1.17;0.40;;;;;;;;;;5009637;28;20704;-69
2021/05/16 06:45:10;;;;;;;1.52;0.60;;;;;;;;;;4997258;28;20034;-70
2021/05/16 06:47:37;;;;;;;1.15;0.40;;;;;;;;;;5015591;28;20036;-70
2021/05/16 06:50:05;;;;;;;2.00;0.40;;;;;;;;;;5007390;28;20026;-69
2021/05/16 06:52:33;;;;;;;1.30;0.43;;;;;;;;;;5005450;28;20490;-69
2021/05/16 06:55:00;;;;;;;1.70;0.50;;;;;;;;;;5015409;28;20030;-70
2021/05/16 06:57:27;;;;;;;5.40;1.20;;;;;;;;;;5008052;28;20390;-70
2021/05/16 06:59:54;;;;;;;1.73;0.40;;;;;;;;;;4997210;28;20037;-70
2021/05/16 07:02:21;;;;;;;1.70;0.70;;;;;;;;;;5015817;28;20145;-70
2021/05/16 07:04:48;;;;;;;2.90;0.73;;;;;;;;;;5012254;28;20048;-69
2021/05/16 07:07:15;;;;;;;2.78;0.75;;;;;;;;;;5015881;28;20112;-69
2021/05/16 07:09:43;;;;;;;4.00;1.08;;;;;;;;;;5022696;28;20029;-69
2021/05/16 07:12:10;;;;;;;4.63;0.50;;;;;;;;;;5014476;28;20360;-69
2021/05/16 07:14:37;;;;;;;3.63;0.70;;;;;;;;;;5011740;28;20018;-69
2021/05/16 07:17:04;;;;;;;2.65;0.70;;;;;;;;;;5011574;28;20481;-69
2021/05/16 07:19:32;;;;;;;3.70;1.25;;;;;;;;;;4996236;28;20026;-69
2021/05/16 07:21:59;;;;;;;1.48;0.63;;;;;;;;;;5016075;28;20429;-70
2021/05/16 07:24:26;;;;;;;4.78;0.85;;;;;;;;;;5013744;28;20038;-70
2021/05/16 07:26:53;;;;;;;3.17;1.00;;;;;;;;;;5013455;28;20032;-71
2021/05/16 07:29:21;;;;;;;3.85;1.08;;;;;;;;;;5011672;28;20030;-71
2021/05/16 07:31:48;;;;;;;3.25;1.17;;;;;;;;;;5009488;28;20410;-71
2021/05/16 07:34:15;;;;;;;4.60;1.38;;;;;;;;;;5014496;28;20049;-72
2021/05/16 07:36:43;;;;;;;4.22;1.00;;;;;;;;;;5010769;28;20026;-71
2021/05/16 07:39:10;;;;;;;4.88;1.48;;;;;;;;;;5014883;28;20025;-71
2021/05/16 07:41:37;;;;;;;6.00;1.77;;;;;;;;;;5014976;28;20022;-72
2021/05/16 07:44:06;;;;;;;3.45;1.00;;;;;;;;;;4997225;28;20383;-71
2021/05/16 07:46:33;;;;;;;4.30;0.95;;;;;;;;;;5015554;28;20025;-71
2021/05/16 07:49:00;;;;;;;2.60;0.80;;;;;;;;;;5014396;28;20064;-71
2021/05/16 07:51:27;;;;;;;2.97;1.10;;;;;;;;;;5014905;28;20037;-71
2021/05/16 07:53:57;;;;;;;3.00;1.40;;;;;;;;;;5015003;28;20053;-71
2021/05/16 07:56:25;;;;;;;2.67;1.00;;;;;;;;;;5021115;28;20030;-71
2021/05/16 07:58:52;;;;;;;3.15;0.95;;;;;;;;;;4995317;28;20023;-71
2021/05/16 08:01:19;;;;;;;2.58;1.08;;;;;;;;;;5013980;28;20069;-71
2021/05/16 08:03:47;;;;;;;4.68;0.90;;;;;;;;;;5022511;28;20061;-70
2021/05/16 08:06:14;;;;;;;7.40;1.60;;;;;;;;;;5015045;28;20029;-70
2021/05/16 08:08:41;;;;;;;4.45;1.50;;;;;;;;;;5023712;28;20033;-70
2021/05/16 08:11:08;;;;;;;3.55;2.15;;;;;;;;;;5014848;28;20022;-71
2021/05/16 08:13:35;;;;;;;3.67;2.15;;;;;;;;;;5014591;28;20033;-71
2021/05/16 08:16:03;;;;;;;5.90;2.10;;;;;;;;;;5014314;28;20544;-71
2021/05/16 08:18:30;;;;;;;8.02;2.00;;;;;;;;;;4997223;28;20072;-71
2021/05/16 08:20:57;;;;;;;4.88;2.17;;;;;;;;;;5014704;28;20018;-72
2021/05/16 08:23:24;;;;;;;5.68;2.63;;;;;;;;;;4995069;28;20022;-71
2021/05/16 08:25:52;;;;;;;8.23;5.05;;;;;;;;;;5006911;28;20026;-71
2021/05/16 08:28:19;;;;;;;9.65;5.60;;;;;;;;;;5014539;28;20041;-70
2021/05/16 08:30:46;;;;;;;7.95;4.50;;;;;;;;;;5016517;28;20029;-71
2021/05/16 08:33:13;;;;;;;10.63;5.13;;;;;;;;;;5014854;28;20022;-71
2021/05/16 08:35:41;;;;;;;9.55;5.35;;;;;;;;;;5018933;28;20560;-71
2021/05/16 08:38:08;;;;;;;7.15;4.00;;;;;;;;;;5015720;28;20029;-70
2021/05/16 08:40:35;;;;;;;6.57;3.78;;;;;;;;;;5014762;28;20490;-70
2021/05/16 08:43:03;;;;;;;11.30;4.18;;;;;;;;;;5017366;28;20064;-71
2021/05/16 08:45:30;;;;;;;7.32;4.20;;;;;;;;;;4996066;28;20040;-70
2021/05/16 08:47:59;;;;;;;7.88;4.03;;;;;;;;;;5013726;28;20022;-70
2021/05/16 08:50:27;;;;;;;6.63;3.90;;;;;;;;;;5000235;28;20031;-70
2021/05/16 08:52:55;;;;;;;6.95;3.55;;;;;;;;;;5010599;28;20374;-70
2021/05/16 08:55:22;;;;;;;4.78;3.28;;;;;;;;;;5003976;28;20018;-69
2021/05/16 08:57:49;;;;;;;5.68;3.15;;;;;;;;;;5011903;28;20028;-70
2021/05/16 09:00:17;;;;;;;6.45;4.13;;;;;;;;;;5012716;28;20058;-70
2021/05/16 09:03:02;;;;;;;5.68;2.65;;;;;;;;;;5013137;28;20100;-70
2021/05/16 09:05:37;;;;;;;3.55;1.80;;;;;;;;;;4996168;28;20052;-70
2021/05/16 09:08:11;;;;;;;5.72;2.15;;;;;;;;;;4991228;28;20038;-70
2021/05/16 09:10:39;;;;;;;6.57;3.17;;;;;;;;;;5013784;28;20112;-70
2021/05/16 09:13:09;;;;;;;4.88;2.38;;;;;;;;;;5013123;28;20109;-70
2021/05/16 09:15:36;;;;;;;6.03;4.97;;;;;;;;;;5013520;28;20054;-70
2021/05/16 09:18:04;;;;;;;3.28;2.28;;;;;;;;;;5013709;28;20053;-70
2021/05/16 09:20:31;;;;;;;3.55;2.03;;;;;;;;;;5006705;28;20056;-70
2021/05/16 09:22:59;;;;;;;3.10;0.98;;;;;;;;;;5011725;28;20475;-70
2021/05/16 09:25:26;;;;;;;3.17;1.33;;;;;;;;;;4990658;28;20046;-70
2021/05/16 09:28:14;;;;;;;4.70;1.65;;;;;;;;;;5013095;28;20022;-71
2021/05/16 09:30:42;;;;;;;2.25;0.80;;;;;;;;;;5006381;28;20064;-71
2021/05/16 09:33:14;;;;;;;1.70;0.68;;;;;;;;;;5012622;28;20034;-70
2021/05/16 09:35:42;;;;;;;3.83;1.33;;;;;;;;;;5008912;28;20086;-70
2021/05/16 09:38:18;;;;;;;2.85;1.15;;;;;;;;;;5012822;28;20033;-70
2021/05/16 09:40:49;;;;;;;4.43;1.13;;;;;;;;;;4995738;28;20269;-71
2021/05/16 09:43:18;;;;;;;3.00;1.30;;;;;;;;;;5013070;28;20028;-71
2021/05/16 09:45:45;;;;;;;6.43;2.08;;;;;;;;;;5013262;28;20482;-71
2021/05/16 09:48:18;;;;;;;6.10;1.90;;;;;;;;;;5012537;28;20034;-72
2021/05/16 09:50:46;;;;;;;4.75;1.45;;;;;;;;;;5012626;28;20088;-70
2021/05/16 09:53:13;;;;;;;2.63;0.80;;;;;;;;;;5012756;28;20026;-70
2021/05/16 09:55:40;;;;;;;2.92;0.98;;;;;;;;;;5013150;28;20087;-71
2021/05/16 09:58:07;;;;;;;4.18;1.08;;;;;;;;;;5012255;28;20111;-70
2021/05/16 10:00:34;;;;;;;3.10;1.10;;;;;;;;;;5012596;28;20073;-71
2021/05/16 10:03:06;;;;;;;5.53;1.75;;;;;;;;;;5012490;28;20026;-71
2021/05/16 10:05:33;;;;;;;6.63;1.30;;;;;;;;;;5012205;28;21257;-72
2021/05/16 10:08:01;;;;;;;4.47;1.75;;;;;;;;;;5012383;28;20037;-70
2021/05/16 10:10:28;;;;;;;3.17;1.00;;;;;;;;;;5011667;28;20022;-72
2021/05/16 10:12:55;;;;;;;1.63;0.80;;;;;;;;;;4992220;28;20110;-71
2021/05/16 10:15:23;;;;;;;2.05;0.75;;;;;;;;;;5002205;28;20072;-71
2021/05/16 10:17:57;;;;;;;4.18;1.10;;;;;;;;;;5009743;28;20032;-71
2021/05/16 10:20:28;;;;;;;1.77;0.90;;;;;;;;;;5007776;28;20123;-71
2021/05/16 10:22:56;;;;;;;1.92;0.73;;;;;;;;;;5012243;28;20605;-72
2021/05/16 10:25:49;;;;;;;3.83;0.98;;;;;;;;;;5012378;28;20096;-71
2021/05/16 10:28:17;;;;;;;2.50;0.70;;;;;;;;;;5009394;28;20402;-71
2021/05/16 10:31:01;;;;;;;2.92;0.80;;;;;;;;;;5012621;28;20026;-71
2021/05/16 10:33:39;;;;;;;3.00;0.77;;;;;;;;;;5012558;28;20030;-71
2021/05/16 10:36:06;;;;;;;2.53;0.75;;;;;;;;;;5012752;28;20030;-72
2021/05/16 10:38:34;;;;;;;2.10;0.77;;;;;;;;;;5012306;28;20034;-72
2021/05/16 10:41:18;;;;;;;2.08;0.50;;;;;;;;;;5012213;28;20422;-71
2021/05/16 10:43:45;;;;;;;2.83;0.73;;;;;;;;;;5020887;28;20025;-72
2021/05/16 10:46:30;;;;;;;2.97;0.70;;;;;;;;;;5013449;28;20034;-70
2021/05/16 10:49:15;;;;;;;4.43;0.80;;;;;;;;;;5004192;28;20033;-71
2021/05/16 10:51:42;;;;;;;2.85;0.80;;;;;;;;;;5012381;28;20041;-69
2021/05/16 10:54:28;;;;;;;2.92;0.73;;;;;;;;;;5011862;28;20037;-70
2021/05/16 10:57:13;;;;;;;2.70;0.60;;;;;;;;;;5011871;28;20097;-71
2021/05/16 10:59:41;;;;;;;3.15;0.93;;;;;;;;;;5011951;28;20030;-71
2021/05/16 11:02:08;;;;;;;5.75;0.60;;;;;;;;;;5011818;28;20386;-71
2021/05/16 11:04:51;;;;;;;2.70;0.57;;;;;;;;;;5005330;28;20386;-72
2021/05/16 11:07:37;;;;;;;4.90;0.68;;;;;;;;;;5008946;28;20034;-71
2021/05/16 11:10:28;;;;;;;3.90;0.77;;;;;;;;;;4997481;28;20025;-71
2021/05/16 11:13:07;;;;;;;2.95;0.77;;;;;;;;;;4997726;28;20054;-72
2021/05/16 11:15:34;;;;;;;4.25;0.68;;;;;;;;;;5005229;28;20056;-71
2021/05/16 11:18:01;;;;;;;5.55;1.00;;;;;;;;;;5007774;28;20080;-70
2021/05/16 11:20:29;;;;;;;4.72;0.82;;;;;;;;;;5010788;28;20088;-70
2021/05/16 11:22:59;;;;;;;3.10;0.90;;;;;;;;;;4990994;28;20549;-70
2021/05/16 11:25:28;;;;;;;5.70;0.70;;;;;;;;;;4994947;28;20053;-70
2021/05/16 11:27:55;;;;;;;4.93;0.77;;;;;;;;;;5010352;28;21694;-70
2021/05/16 11:30:28;;;;;;;2.65;0.50;;;;;;;;;;5010132;28;20080;-71
2021/05/16 11:32:55;;;;;;;2.58;0.60;;;;;;;;;;5009535;28;20644;-70
2021/05/16 11:35:22;;;;;;;3.70;0.70;;;;;;;;;;5010752;28;20109;-70
2021/05/16 11:37:51;;;;;;;5.07;0.80;;;;;;;;;;4991281;28;20083;-70
2021/05/16 11:40:29;;;;;;;5.35;0.70;;;;;;;;;;4992397;28;20061;-70
2021/05/16 11:42:57;;;;;;;2.78;1.05;;;;;;;;;;4985372;28;20100;-70
2021/05/16 11:45:28;;;;;;;3.20;1.02;;;;;;;;;;5010243;28;20120;-71
2021/05/16 11:47:55;;;;;;;1.88;0.80;;;;;;;;;;4993131;28;20042;-70
2021/05/16 11:50:37;;;;;;;4.38;1.10;;;;;;;;;;5013701;28;20514;-70
2021/05/16 11:53:04;;;;;;;3.35;1.13;;;;;;;;;;4998269;28;20471;-71
2021/05/16 11:55:31;;;;;;;3.90;1.38;;;;;;;;;;5011954;28;20522;-70
2021/05/16 11:57:59;;;;;;;3.40;0.82;;;;;;;;;;5014262;28;20026;-70
2021/05/16 12:00:30;;;;;;;3.78;0.95;;;;;;;;;;5011150;28;20026;-70
2021/05/16 12:03:17;;;;;;;3.20;0.80;;;;;;;;;;5007681;28;20482;-69
2021/05/16 12:05:45;;;;;;;2.95;0.63;;;;;;;;;;5017478;28;20501;-71
2021/05/16 12:08:13;;;;;;;3.17;0.95;;;;;;;;;;5005142;28;20062;-71
2021/05/16 12:10:40;;;;;;;2.25;0.63;;;;;;;;;;4996599;28;20038;-70
2021/05/16 12:13:24;;;;;;;1.90;0.80;;;;;;;;;;5011010;28;20046;-70
2021/05/16 12:15:52;;;;;;;7.95;1.13;;;;;;;;;;5009527;28;20041;-71
2021/05/16 12:18:22;;;;;;;3.63;0.43;;;;;;;;;;4990488;28;20484;-71
2021/05/16 12:21:02;;;;;;;1.83;0.60;;;;;;;;;;5005621;28;20017;-71
2021/05/16 12:23:31;;;;;;;4.40;0.60;;;;;;;;;;5012313;28;20040;-72
2021/05/16 12:25:58;;;;;;;3.05;0.55;;;;;;;;;;4995547;28;20113;-71
2021/05/16 12:28:26;;;;;;;2.33;0.30;;;;;;;;;;5022928;28;20525;-72
2021/05/16 12:30:54;;;;;;;3.42;0.50;;;;;;;;;;5014106;28;20029;-70
2021/05/16 12:33:22;;;;;;;2.97;0.60;;;;;;;;;;5009031;28;20018;-72
2021/05/16 12:35:49;;;;;;;1.60;0.63;;;;;;;;;;5010649;28;20025;-71
2021/05/16 12:38:17;;;;;;;2.20;0.50;;;;;;;;;;5012664;28;20075;-71
2021/05/16 12:40:44;;;;;;;6.72;0.57;;;;;;;;;;5022992;28;20021;-71
2021/05/16 12:43:14;;;;;;;3.00;0.70;;;;;;;;;;5015478;28;20025;-70
2021/05/16 12:45:41;;;;;;;4.22;0.50;;;;;;;;;;5013821;28;20038;-70
2021/05/16 12:48:10;;;;;;;4.80;0.50;;;;;;;;;;5010119;28;20025;-70
2021/05/16 12:50:37;;;;;;;1.77;0.25;;;;;;;;;;5012537;28;20025;-71
2021/05/16 12:53:32;;;;;;;1.67;0.40;;;;;;;;;;5011654;28;20034;-70
2021/05/16 12:56:20;;;;;;;3.50;0.50;;;;;;;;;;5013193;28;20014;-70
2021/05/16 12:59:06;;;;;;;0.95;0.30;;;;;;;;;;5001205;28;20092;-71
2021/05/16 13:01:38;;;;;;;2.67;0.50;;;;;;;;;;5002828;28;20770;-70
2021/05/16 13:04:07;;;;;;;1.58;0.60;;;;;;;;;;5010817;28;20038;-70
2021/05/16 13:06:38;;;;;;;3.20;0.80;;;;;;;;;;5013011;28;20124;-71
2021/05/16 13:09:06;;;;;;;3.92;0.30;;;;;;;;;;5011527;28;20030;-71
2021/05/16 13:11:49;;;;;;;3.33;0.47;;;;;;;;;;5005205;28;20084;-71
2021/05/16 13:14:30;;;;;;;2.83;0.40;;;;;;;;;;5007854;28;20029;-72
2021/05/16 13:17:06;;;;;;;1.73;0.30;;;;;;;;;;5018373;28;20076;-72
2021/05/16 13:19:37;;;;;;;0.82;0.30;;;;;;;;;;5010522;28;20449;-72
2021/05/16 13:22:05;;;;;;;1.27;0.40;;;;;;;;;;5007222;28;20088;-70
2021/05/16 13:24:48;;;;;;;3.03;0.80;;;;;;;;;;5011362;28;20034;-69
2021/05/16 13:27:15;;;;;;;2.53;1.05;;;;;;;;;;5009998;28;20022;-71
2021/05/16 13:29:46;;;;;;;3.58;0.60;;;;;;;;;;5009107;28;20029;-72
2021/05/16 13:32:17;;;;;;;1.92;0.40;;;;;;;;;;5011614;28;20022;-71
2021/05/16 13:34:49;;;;;;;2.08;0.35;;;;;;;;;;4993915;28;20113;-71
2021/05/16 13:37:17;;;;;;;2.47;0.38;;;;;;;;;;5011372;28;20057;-71
2021/05/16 13:39:44;;;;;;;2.53;0.88;;;;;;;;;;5011730;28;20101;-73
2021/05/16 13:42:11;;;;;;;2.90;0.40;;;;;;;;;;5010119;28;20084;-71
2021/05/16 13:44:38;;;;;;;2.33;0.40;;;;;;;;;;5011182;28;20065;-71
2021/05/16 13:47:06;;;;;;;2.70;0.52;;;;;;;;;;5010360;28;20034;-71
2021/05/16 13:49:33;;;;;;;2.97;0.50;;;;;;;;;;5004478;28;20033;-72
2021/05/16 13:52:00;;;;;;;2.85;1.13;;;;;;;;;;5009206;28;20084;-71
2021/05/16 13:54:31;;;;;;;2.72;0.47;;;;;;;;;;5011742;28;20088;-70
2021/05/16 13:57:01;;;;;;;2.65;0.40;;;;;;;;;;4992067;28;20119;-71
2021/05/16 13:59:28;;;;;;;4.90;0.47;;;;;;;;;;5011351;28;20026;-71
2021/05/16 14:01:56;;;;;;;3.78;0.43;;;;;;;;;;5010854;28;20026;-71
2021/05/16 14:04:24;;;;;;;3.70;0.50;;;;;;;;;;5010670;28;20030;-71
2021/05/16 14:06:51;;;;;;;3.28;0.65;;;;;;;;;;5009008;28;20040;-71
2021/05/16 14:09:18;;;;;;;2.17;0.82;;;;;;;;;;5005739;28;20080;-71
2021/05/16 14:11:45;;;;;;;4.13;0.63;;;;;;;;;;5011621;28;20026;-71
2021/05/16 14:14:12;;;;;;;2.75;0.65;;;;;;;;;;5009855;28;20030;-71
2021/05/16 14:16:41;;;;;;;5.30;0.68;;;;;;;;;;5011324;28;20050;-71
2021/05/16 14:19:08;;;;;;;5.03;0.50;;;;;;;;;;4990567;28;20506;-70
2021/05/16 14:21:35;;;;;;;1.20;0.38;;;;;;;;;;4999136;28;20040;-71
2021/05/16 14:24:02;;;;;;;3.67;0.73;;;;;;;;;;5011515;28;20041;-71
2021/05/16 14:26:30;;;;;;;2.15;0.52;;;;;;;;;;5014226;28;20021;-70
2021/05/16 14:28:57;;;;;;;1.65;0.50;;;;;;;;;;5010594;28;20065;-73
2021/05/16 14:31:24;;;;;;;2.17;0.63;;;;;;;;;;5012383;28;20152;-71
2021/05/16 14:33:51;;;;;;;2.88;0.60;;;;;;;;;;5010733;28;20033;-71
2021/05/16 14:36:18;;;;;;;3.90;0.60;;;;;;;;;;5012164;28;20041;-71
2021/05/16 14:38:45;;;;;;;0.85;0.30;;;;;;;;;;5010636;28;20018;-70
2021/05/16 14:41:13;;;;;;;1.98;0.50;;;;;;;;;;5010707;28;20026;-72
2021/05/16 14:43:40;;;;;;;1.08;0.40;;;;;;;;;;5013593;28;20021;-71
2021/05/16 14:46:12;;;;;;;3.60;0.57;;;;;;;;;;5011209;28;20049;-71
2021/05/16 14:48:43;;;;;;;3.72;0.80;;;;;;;;;;5008561;28;20017;-70
2021/05/16 14:51:19;;;;;;;1.67;0.38;;;;;;;;;;5008919;28;20447;-70
2021/05/16 14:53:47;;;;;;;2.53;0.52;;;;;;;;;;5010488;28;20026;-71